Time;durP1;ratioP1;P1;durP2;ratioP2;P2;SDS_P1;SDS_P2;PMS_P1;PMS_P2;Temp;Humidity;BMP_temperature;BMP_pressure;BME280_temperature;BME280_humidity;BME280_pressure;Samples;Min_cycle;Max_cycle;Signal;HPM_P1;HPM_P2
2022/10/21 00:00:39;;;;;;;54.10;21.45;;;;;;;12.00;nan;93822.44;4932253;29;20044;-72
2022/10/21 00:03:06;;;;;;;47.72;22.15;;;;;;;12.03;nan;93818.03;4931988;29;20040;-71
2022/10/21 00:05:33;;;;;;;50.27;21.37;;;;;;;12.06;nan;93811.69;4931789;29;20044;-71
2022/10/21 00:07:59;;;;;;;57.30;23.13;;;;;;;11.50;nan;93783.00;4916894;29;20036;-71
2022/10/21 00:10:26;;;;;;;53.15;22.52;;;;;;;11.84;nan;93794.88;4931606;29;20044;-71
2022/10/21 00:12:53;;;;;;;47.03;20.92;;;;;;;12.00;nan;93792.19;4932024;29;20052;-72
2022/10/21 00:15:20;;;;;;;50.78;21.23;;;;;;;11.97;nan;93782.81;4931654;29;20401;-71
2022/10/21 00:17:47;;;;;;;51.73;21.80;;;;;;;12.03;nan;93793.28;4931806;29;20051;-71
2022/10/21 00:20:13;;;;;;;46.80;21.33;;;;;;;12.10;nan;93793.91;4931423;29;20572;-71
2022/10/21 00:22:40;;;;;;;42.30;20.38;;;;;;;12.11;nan;93800.19;4931939;29;20040;-71
2022/10/21 00:25:08;;;;;;;44.58;20.10;;;;;;;12.01;nan;93803.94;4932132;29;20493;-71
2022/10/21 00:27:35;;;;;;;48.15;20.55;;;;;;;11.88;nan;93801.84;4931024;29;20433;-71
2022/10/21 00:30:05;;;;;;;46.07;20.03;;;;;;;11.82;nan;93798.03;4932027;29;20043;-71
2022/10/21 00:32:31;;;;;;;49.15;21.05;;;;;;;11.85;nan;93802.72;4931331;29;20102;-70
2022/10/21 00:34:58;;;;;;;49.70;20.83;;;;;;;11.90;nan;93801.44;4915032;29;20046;-71
2022/10/21 00:37:28;;;;;;;51.78;20.55;;;;;;;11.99;nan;93810.66;4929387;29;20065;-70
2022/10/21 00:39:55;;;;;;;50.30;20.55;;;;;;;12.09;nan;93806.13;4931837;29;20055;-71
2022/10/21 00:42:29;;;;;;;49.67;21.40;;;;;;;12.09;nan;93821.84;4930256;29;20477;-71
2022/10/21 00:45:05;;;;;;;45.17;19.95;;;;;;;11.94;nan;93815.88;4931098;29;20447;-71
2022/10/21 00:47:43;;;;;;;46.83;20.60;;;;;;;11.83;nan;93812.56;4933203;29;20097;-71
2022/10/21 00:50:22;;;;;;;50.22;21.65;;;;;;;11.78;nan;93816.59;4934359;29;20487;-70
2022/10/21 00:52:49;;;;;;;45.95;20.40;;;;;;;11.85;nan;93802.72;4934522;29;20044;-71
2022/10/21 00:55:16;;;;;;;46.03;19.67;;;;;;;11.88;nan;93812.06;4916936;29;20055;-71
2022/10/21 00:57:43;;;;;;;49.45;20.92;;;;;;;11.89;nan;93806.19;4934896;29;20039;-71
2022/10/21 01:00:11;;;;;;;53.13;20.85;;;;;;;11.93;nan;93801.38;4916879;29;20047;-70
2022/10/21 01:02:38;;;;;;;48.45;20.48;;;;;;;11.93;nan;93797.81;4934312;29;20039;-72
2022/10/21 01:05:08;;;;;;;49.60;20.27;;;;;;;11.98;nan;93792.59;4917551;29;20051;-71
2022/10/21 01:07:35;;;;;;;49.50;19.50;;;;;;;12.12;nan;93780.50;4933565;29;20701;-70
2022/10/21 01:10:06;;;;;;;46.63;19.52;;;;;;;12.09;nan;93788.81;4934382;29;20039;-71
2022/10/21 01:12:51;;;;;;;44.00;19.67;;;;;;;12.16;nan;93783.94;4933798;29;20405;-71
2022/10/21 01:15:28;;;;;;;41.25;18.10;;;;;;;12.26;nan;93771.13;4933524;29;20284;-71
2022/10/21 01:18:21;;;;;;;39.72;17.48;;;;;;;12.27;nan;93766.41;4934093;29;20490;-70
2022/10/21 01:21:03;;;;;;;38.60;16.77;;;;;;;12.33;nan;93768.19;4933360;29;20233;-71
2022/10/21 01:24:08;;;;;;;49.30;20.65;;;;;;;11.75;nan;93756.94;4933628;29;20043;-71
2022/10/21 01:26:47;;;;;;;53.67;21.50;;;;;;;11.80;nan;93761.97;4933049;29;20544;-71
2022/10/21 01:29:31;;;;;;;47.00;21.15;;;;;;;12.01;nan;93744.22;4933460;29;20071;-71
2022/10/21 01:32:10;;;;;;;52.03;20.40;;;;;;;11.92;nan;93720.06;4934229;29;20056;-71
2022/10/21 01:35:11;;;;;;;46.60;19.90;;;;;;;11.95;nan;93724.72;4933247;29;20731;-71
2022/10/21 01:37:43;;;;;;;49.53;19.73;;;;;;;12.09;nan;93718.09;4932092;29;21742;-71
2022/10/21 01:40:17;;;;;;;47.90;20.52;;;;;;;12.16;nan;93719.91;4934066;29;20040;-71
2022/10/21 01:42:52;;;;;;;47.38;20.02;;;;;;;12.22;nan;93723.69;4920797;29;20408;-72
2022/10/21 01:45:35;;;;;;;44.47;19.67;;;;;;;12.27;nan;93711.38;4933749;29;20079;-71
2022/10/21 01:48:07;;;;;;;43.07;19.00;;;;;;;12.26;nan;93718.09;4934470;29;20708;-71
2022/10/21 01:50:40;;;;;;;45.50;19.00;;;;;;;12.26;nan;93713.34;4918285;29;21451;-71
2022/10/21 01:53:11;;;;;;;36.88;17.80;;;;;;;12.35;nan;93718.25;4934045;29;20512;-72
2022/10/21 01:55:40;;;;;;;42.55;19.10;;;;;;;12.28;nan;93710.19;4933277;29;21628;-72
2022/10/21 01:58:34;;;;;;;42.10;19.35;;;;;;;12.27;nan;93709.38;4933485;29;20058;-72
2022/10/21 02:01:04;;;;;;;44.57;19.10;;;;;;;12.37;nan;93708.38;4929701;29;20868;-71
2022/10/21 02:03:36;;;;;;;42.60;18.85;;;;;;;12.37;nan;93711.13;4933692;29;20047;-72
2022/10/21 02:06:03;;;;;;;42.63;18.77;;;;;;;12.32;nan;93702.59;4933897;29;20048;-71
2022/10/21 02:08:30;;;;;;;50.40;21.10;;;;;;;12.16;nan;93701.41;4933605;29;20054;-72
2022/10/21 02:11:01;;;;;;;49.65;20.70;;;;;;;12.13;nan;93705.03;4933847;29;20048;-72
2022/10/21 02:13:34;;;;;;;49.40;21.57;;;;;;;12.18;nan;93710.00;4933382;29;20058;-72
2022/10/21 02:16:05;;;;;;;47.03;20.20;;;;;;;12.28;nan;93710.94;4933731;29;20036;-72
2022/10/21 02:18:32;;;;;;;52.15;20.30;;;;;;;12.24;nan;93691.00;4925492;29;20047;-73
2022/10/21 02:21:05;;;;;;;42.25;19.15;;;;;;;12.16;nan;93700.66;4933534;29;20050;-71
2022/10/21 02:23:51;;;;;;;48.15;20.75;;;;;;;12.10;nan;93689.38;4933030;29;20050;-72
2022/10/21 02:26:19;;;;;;;41.10;18.37;;;;;;;12.13;nan;93696.00;4933082;29;20058;-72
2022/10/21 02:28:46;;;;;;;45.67;19.75;;;;;;;12.11;nan;93687.41;4943013;29;20103;-71
2022/10/21 02:31:32;;;;;;;46.88;19.70;;;;;;;12.00;nan;93690.41;4939014;29;20568;-71
2022/10/21 02:34:41;;;;;;;42.25;18.35;;;;;;;12.14;nan;93681.81;4924664;29;20414;-72
2022/10/21 02:37:52;;;;;;;38.80;16.98;;;;;;;12.16;nan;93698.66;4932656;29;20628;-72
2022/10/21 02:40:22;;;;;;;38.90;17.03;;;;;;;12.20;nan;93693.06;4887761;29;20829;-71
2022/10/21 02:42:55;;;;;;;40.70;17.67;;;;;;;12.10;nan;93688.63;4933247;29;20044;-71
2022/10/21 02:45:22;;;;;;;43.25;19.13;;;;;;;12.07;nan;93681.97;4932982;29;20396;-72
2022/10/21 02:47:49;;;;;;;40.22;18.73;;;;;;;12.09;nan;93679.59;4933323;29;20042;-71
2022/10/21 02:50:16;;;;;;;37.35;17.30;;;;;;;12.03;nan;93675.78;4932620;29;20044;-72
2022/10/21 02:52:43;;;;;;;40.83;17.03;;;;;;;12.10;nan;93675.63;4932790;29;20046;-72
2022/10/21 02:55:09;;;;;;;37.53;16.95;;;;;;;12.23;nan;93667.44;4932680;29;20400;-72
2022/10/21 02:57:36;;;;;;;40.53;16.50;;;;;;;12.21;nan;93672.59;4933147;29;20062;-71
2022/10/21 03:00:05;;;;;;;35.88;16.52;;;;;;;12.28;nan;93666.94;4932812;29;20040;-72
2022/10/21 03:02:32;;;;;;;35.45;16.38;;;;;;;12.30;nan;93670.00;4932180;29;20046;-72
2022/10/21 03:04:58;;;;;;;36.77;16.77;;;;;;;12.32;nan;93664.09;4932837;29;20500;-71
2022/10/21 03:07:25;;;;;;;35.42;16.17;;;;;;;12.41;nan;93666.97;4932173;29;20043;-72
2022/10/21 03:09:52;;;;;;;38.50;17.05;;;;;;;12.43;nan;93663.78;4932907;29;20048;-71
2022/10/21 03:12:19;;;;;;;33.95;16.67;;;;;;;12.34;nan;93656.94;4932478;29;20055;-72
2022/10/21 03:14:45;;;;;;;37.88;17.60;;;;;;;12.03;nan;93653.03;4933259;29;20489;-72
2022/10/21 03:17:12;;;;;;;37.80;16.70;;;;;;;11.93;nan;93655.63;4932318;29;20556;-71
2022/10/21 03:19:39;;;;;;;40.90;18.08;;;;;;;11.95;nan;93655.97;4932671;29;20043;-72
2022/10/21 03:22:05;;;;;;;41.00;17.90;;;;;;;12.06;nan;93646.69;4932696;29;20039;-72
2022/10/21 03:24:32;;;;;;;39.58;17.33;;;;;;;12.07;nan;93650.94;4932324;29;20697;-71
2022/10/21 03:26:59;;;;;;;36.78;16.95;;;;;;;12.22;nan;93654.91;4932674;29;20406;-72
2022/10/21 03:29:26;;;;;;;35.57;16.37;;;;;;;12.29;nan;93659.44;4931885;29;20411;-72
2022/10/21 03:31:52;;;;;;;38.05;17.52;;;;;;;12.27;nan;93672.84;4932275;29;20150;-72
2022/10/21 03:34:19;;;;;;;43.50;19.48;;;;;;;12.25;nan;93669.75;4931987;29;20432;-72
2022/10/21 03:36:46;;;;;;;44.92;19.33;;;;;;;12.33;nan;93663.63;4932465;29;20071;-71
2022/10/21 03:39:13;;;;;;;85.43;42.75;;;;;;;12.30;nan;93661.00;4931760;29;20070;-72
2022/10/21 03:41:40;;;;;;;42.17;20.60;;;;;;;12.14;nan;93665.31;4932320;29;20058;-72
2022/10/21 03:44:07;;;;;;;38.47;19.17;;;;;;;12.24;nan;93673.72;4932223;29;20499;-72
2022/10/21 03:46:33;;;;;;;38.13;19.10;;;;;;;12.25;nan;93665.03;4931304;29;20370;-72
2022/10/21 03:49:00;;;;;;;37.65;18.42;;;;;;;12.26;nan;93655.56;4932161;29;20050;-71
2022/10/21 03:51:31;;;;;;;38.42;17.20;;;;;;;12.23;nan;93659.19;4931321;29;20043;-72
2022/10/21 03:53:58;;;;;;;34.27;16.77;;;;;;;12.33;nan;93665.63;4931981;29;20052;-72
2022/10/21 03:56:25;;;;;;;37.17;16.02;;;;;;;12.29;nan;93656.69;4931665;29;20055;-71
2022/10/21 03:58:51;;;;;;;33.08;16.52;;;;;;;12.31;nan;93655.03;4931929;29;20047;-71
2022/10/21 04:01:23;;;;;;;32.95;14.75;;;;;;;12.32;nan;93650.31;4931465;29;20614;-71
2022/10/21 04:03:50;;;;;;;30.23;14.02;;;;;;;12.37;nan;93649.78;4931765;29;20044;-71
2022/10/21 04:06:17;;;;;;;27.87;13.00;;;;;;;12.40;nan;93648.94;4929985;29;20051;-71
2022/10/21 04:08:43;;;;;;;28.52;13.45;;;;;;;12.41;nan;93649.69;4931818;29;20416;-71
2022/10/21 04:11:10;;;;;;;32.45;14.23;;;;;;;12.39;nan;93648.16;4931085;29;20061;-72
2022/10/21 04:13:37;;;;;;;31.45;14.45;;;;;;;12.32;nan;93647.56;4931461;29;20056;-71
2022/10/21 04:16:07;;;;;;;32.53;15.75;;;;;;;12.27;nan;93637.09;4931340;29;20512;-72
2022/10/21 04:18:34;;;;;;;35.00;15.17;;;;;;;12.12;nan;93637.47;4926864;29;20040;-71
2022/10/21 04:21:00;;;;;;;31.17;14.93;;;;;;;12.18;nan;93623.97;4931610;29;20036;-71
2022/10/21 04:23:27;;;;;;;29.73;14.98;;;;;;;12.22;nan;93605.38;4917465;29;20051;-71
2022/10/21 04:25:54;;;;;;;28.33;13.43;;;;;;;12.14;nan;93604.03;4935148;29;20051;-71
2022/10/21 04:28:21;;;;;;;36.10;16.65;;;;;;;12.05;nan;93595.59;4934281;29;20044;-71
2022/10/21 04:30:51;;;;;;;39.20;16.87;;;;;;;11.71;nan;93592.13;4935065;29;20043;-71
2022/10/21 04:33:18;;;;;;;43.25;17.00;;;;;;;11.68;nan;93590.22;4934186;29;20404;-71
2022/10/21 04:35:44;;;;;;;45.40;18.58;;;;;;;11.75;nan;93590.06;4934983;29;20043;-71
2022/10/21 04:38:11;;;;;;;42.10;17.95;;;;;;;11.87;nan;93588.56;4934273;29;20052;-71
2022/10/21 04:40:38;;;;;;;41.15;17.55;;;;;;;12.00;nan;93602.41;4934789;29;20702;-71
2022/10/21 04:43:05;;;;;;;37.17;16.10;;;;;;;12.08;nan;93601.03;4934939;29;20047;-71
2022/10/21 04:45:32;;;;;;;36.45;16.42;;;;;;;12.11;nan;93599.38;4933960;29;20515;-72
2022/10/21 04:47:59;;;;;;;36.45;15.90;;;;;;;12.18;nan;93605.47;4934682;29;20052;-71
2022/10/21 04:50:25;;;;;;;36.30;16.05;;;;;;;12.03;nan;93604.28;4934101;29;20048;-71
2022/10/21 04:52:52;;;;;;;44.97;20.63;;;;;;;12.18;nan;93591.72;4934246;29;20057;-71
2022/10/21 04:55:19;;;;;;;44.37;18.17;;;;;;;12.07;nan;93588.47;4933643;29;20079;-71
2022/10/21 04:57:46;;;;;;;41.47;17.85;;;;;;;12.16;nan;93580.38;4934566;29;20040;-71
2022/10/21 05:00:13;;;;;;;38.65;17.60;;;;;;;12.26;nan;93573.03;4933871;29;20613;-71
2022/10/21 05:02:40;;;;;;;34.55;16.65;;;;;;;12.31;nan;93558.72;4934294;29;20065;-71
2022/10/21 05:05:07;;;;;;;37.90;16.30;;;;;;;12.34;nan;93543.34;4934437;29;20043;-71
2022/10/21 05:07:34;;;;;;;33.67;15.67;;;;;;;12.31;nan;93539.47;4933091;29;21884;-71
2022/10/21 05:10:01;;;;;;;30.75;15.10;;;;;;;12.21;nan;93537.78;4934409;29;20050;-71
2022/10/21 05:12:28;;;;;;;34.50;15.80;;;;;;;12.21;nan;93537.03;4933222;29;20052;-71
2022/10/21 05:14:54;;;;;;;28.85;13.40;;;;;;;12.25;nan;93532.19;4934328;29;20046;-71
2022/10/21 05:17:21;;;;;;;27.05;13.30;;;;;;;12.18;nan;93525.69;4933331;29;20076;-72
2022/10/21 05:19:48;;;;;;;29.77;13.13;;;;;;;12.02;nan;93513.97;4917463;29;20050;-72
2022/10/21 05:22:15;;;;;;;30.65;13.35;;;;;;;12.08;nan;93504.75;4933575;29;20043;-71
2022/10/21 05:24:41;;;;;;;31.10;14.20;;;;;;;12.20;nan;93503.25;4934222;29;20493;-72
2022/10/21 05:27:08;;;;;;;26.85;12.80;;;;;;;12.28;nan;93498.31;4934160;29;20046;-71
2022/10/21 05:29:35;;;;;;;29.88;12.77;;;;;;;12.14;nan;93494.00;4932893;29;21026;-71
2022/10/21 05:32:02;;;;;;;27.53;12.20;;;;;;;12.25;nan;93485.44;4933953;29;20040;-71
2022/10/21 05:34:28;;;;;;;24.08;11.68;;;;;;;12.19;nan;93490.69;4931957;29;20085;-71
2022/10/21 05:36:55;;;;;;;31.13;12.60;;;;;;;12.27;nan;93494.03;4934115;29;20044;-71
2022/10/21 05:39:22;;;;;;;35.97;16.45;;;;;;;11.99;nan;93479.84;4932923;29;20054;-71
2022/10/21 05:41:49;;;;;;;40.00;16.83;;;;;;;11.97;nan;93482.25;4933772;29;20036;-71
2022/10/21 05:44:15;;;;;;;39.37;16.80;;;;;;;12.07;nan;93494.19;4933270;29;20047;-71
2022/10/21 05:46:42;;;;;;;36.22;16.33;;;;;;;11.82;nan;93489.34;4933760;29;20040;-71
2022/10/21 05:49:09;;;;;;;35.63;15.05;;;;;;;11.74;nan;93483.25;4933340;29;20042;-70
2022/10/21 05:51:36;;;;;;;34.05;14.57;;;;;;;11.96;nan;93505.47;4933162;29;20039;-71
2022/10/21 05:54:04;;;;;;;33.40;14.52;;;;;;;12.09;nan;93498.06;4933525;29;20044;-71
2022/10/21 05:56:31;;;;;;;27.20;13.60;;;;;;;12.20;nan;93497.75;4933039;29;20074;-71
2022/10/21 05:58:58;;;;;;;31.15;13.77;;;;;;;12.17;nan;93485.66;4933449;29;20054;-71
2022/10/21 06:01:24;;;;;;;32.70;13.85;;;;;;;12.25;nan;93482.69;4932076;29;20058;-71
2022/10/21 06:03:51;;;;;;;28.98;12.77;;;;;;;12.22;nan;93486.31;4934083;29;20054;-71
2022/10/21 06:06:18;;;;;;;26.67;12.43;;;;;;;12.29;nan;93495.13;4933262;29;20047;-77
2022/10/21 06:08:45;;;;;;;26.53;12.37;;;;;;;12.35;nan;93481.59;4933776;29;20062;-77
2022/10/21 06:11:15;;;;;;;26.80;12.27;;;;;;;12.36;nan;93478.41;4933115;29;20059;-72
2022/10/21 06:13:42;;;;;;;27.58;12.38;;;;;;;12.39;nan;93482.25;4942616;29;20115;-71
2022/10/21 06:16:11;;;;;;;23.63;11.80;;;;;;;12.41;nan;93490.09;4944117;29;20130;-71
2022/10/21 06:18:39;;;;;;;22.58;10.60;;;;;;;12.41;nan;93490.84;4939987;29;20423;-73
2022/10/21 06:21:06;;;;;;;24.17;11.03;;;;;;;12.36;nan;93494.16;4935880;29;20493;-71
2022/10/21 06:23:33;;;;;;;29.05;10.98;;;;;;;12.43;nan;93493.16;4936072;29;20040;-72
2022/10/21 06:26:04;;;;;;;25.60;11.70;;;;;;;12.36;nan;93494.16;4935202;29;20039;-72
2022/10/21 06:28:33;;;;;;;26.80;12.20;;;;;;;12.24;nan;93500.41;4933078;29;20044;-71
2022/10/21 06:31:00;;;;;;;30.35;13.32;;;;;;;12.12;nan;93504.66;4933483;29;20039;-71
2022/10/21 06:33:27;;;;;;;30.17;13.70;;;;;;;11.95;nan;93501.97;4915998;29;20055;-71
2022/10/21 06:35:54;;;;;;;29.00;12.98;;;;;;;11.88;nan;93512.34;4933180;29;20050;-71
2022/10/21 06:38:22;;;;;;;33.05;12.95;;;;;;;12.07;nan;93510.69;4932389;29;20054;-71
2022/10/21 06:40:49;;;;;;;25.50;10.57;;;;;;;12.17;nan;93520.63;4933331;29;20036;-71
2022/10/21 06:43:16;;;;;;;21.95;9.65;;;;;;;12.34;nan;93538.63;4932603;29;20519;-71
2022/10/21 06:45:43;;;;;;;24.03;10.07;;;;;;;12.46;nan;93547.34;4932957;29;20058;-71
2022/10/21 06:48:12;;;;;;;26.02;11.35;;;;;;;12.53;nan;93555.38;4932388;29;20048;-72
2022/10/21 06:50:39;;;;;;;27.75;10.82;;;;;;;12.55;nan;93562.00;4932216;29;20060;-70
2022/10/21 06:53:06;;;;;;;29.02;9.63;;;;;;;12.64;nan;93579.88;4931190;29;20040;-70
2022/10/21 06:55:33;;;;;;;25.40;9.73;;;;;;;12.66;nan;93582.97;4915847;29;20048;-69
2022/10/21 06:58:00;;;;;;;19.33;8.53;;;;;;;12.64;nan;93593.66;4915810;29;20046;-72
2022/10/21 07:00:27;;;;;;;21.13;9.40;;;;;;;12.60;nan;93610.25;4932174;29;20051;-73
2022/10/21 07:02:53;;;;;;;24.48;11.63;;;;;;;12.56;nan;93612.34;4933306;29;20042;-76
2022/10/21 07:05:20;;;;;;;21.50;11.13;;;;;;;12.49;nan;93627.03;4932185;29;20051;-70
2022/10/21 07:07:47;;;;;;;24.85;13.00;;;;;;;12.42;nan;93618.22;4932144;29;20044;-69
2022/10/21 07:10:14;;;;;;;25.43;12.87;;;;;;;12.45;nan;93614.59;4944699;28;20506;-68
2022/10/21 07:12:40;;;;;;;24.13;11.50;;;;;;;12.46;nan;93618.91;4933609;29;20047;-69
2022/10/21 07:15:08;;;;;;;22.92;11.48;;;;;;;12.45;nan;93604.34;4932459;29;20047;-69
2022/10/21 07:17:34;;;;;;;20.48;9.52;;;;;;;12.45;nan;93579.59;4922843;29;20213;-70
2022/10/21 07:20:02;;;;;;;19.25;8.15;;;;;;;12.47;nan;93573.66;4943974;28;20039;-71
2022/10/21 07:22:30;;;;;;;17.73;7.97;;;;;;;12.56;nan;93560.81;4946694;28;20055;-69
2022/10/21 07:24:57;;;;;;;21.40;9.32;;;;;;;12.56;nan;93557.28;4949032;28;20044;-68
2022/10/21 07:27:24;;;;;;;17.38;8.95;;;;;;;12.67;nan;93545.94;4934627;28;20058;-68
2022/10/21 07:29:51;;;;;;;20.65;6.82;;;;;;;12.73;nan;93538.69;4931717;29;20054;-68
2022/10/21 07:32:17;;;;;;;17.55;8.40;;;;;;;12.72;nan;93545.41;4944210;28;20051;-67
2022/10/21 07:34:44;;;;;;;17.40;7.17;;;;;;;12.88;nan;93544.56;4933674;29;20050;-68
2022/10/21 07:37:11;;;;;;;15.02;6.05;;;;;;;12.83;nan;93536.84;4931392;29;20054;-69
2022/10/21 07:39:38;;;;;;;11.13;4.57;;;;;;;12.82;nan;93530.56;4932227;29;20055;-68
2022/10/21 07:42:05;;;;;;;12.52;4.78;;;;;;;12.88;nan;93523.28;4932190;29;20036;-69
2022/10/21 07:44:31;;;;;;;15.40;5.80;;;;;;;12.85;nan;93521.41;4931379;29;20043;-69
2022/10/21 07:46:58;;;;;;;14.27;5.30;;;;;;;12.96;nan;93512.84;4932440;29;20044;-69
2022/10/21 07:49:25;;;;;;;12.95;5.50;;;;;;;13.14;nan;93526.81;4931761;29;20059;-68
2022/10/21 07:51:53;;;;;;;19.10;6.30;;;;;;;13.13;nan;93530.00;4931508;29;20044;-68
2022/10/21 07:54:20;;;;;;;13.77;6.40;;;;;;;13.21;nan;93527.81;4931428;29;20082;-68
2022/10/21 07:56:50;;;;;;;13.48;6.53;;;;;;;13.10;nan;93519.84;4931409;29;20054;-68
2022/10/21 07:59:18;;;;;;;12.83;5.63;;;;;;;12.99;nan;93525.72;4931363;29;20050;-69
2022/10/21 08:01:46;;;;;;;14.30;6.15;;;;;;;13.04;nan;93527.94;4931791;29;20058;-69
2022/10/21 08:04:23;;;;;;;15.75;7.40;;;;;;;13.38;nan;93537.50;4931487;29;20040;-69
2022/10/21 08:06:51;;;;;;;12.48;6.35;;;;;;;13.38;nan;93551.28;4931514;29;20482;-69
2022/10/21 08:09:18;;;;;;;13.55;6.60;;;;;;;13.47;nan;93562.41;4936123;28;20051;-69
2022/10/21 08:11:45;;;;;;;14.50;6.90;;;;;;;13.43;nan;93563.75;4940086;28;20724;-69
2022/10/21 08:14:13;;;;;;;17.45;8.23;;;;;;;13.44;nan;93577.09;4928959;29;20736;-70
2022/10/21 08:16:40;;;;;;;17.80;7.80;;;;;;;13.34;nan;93565.19;4928010;29;20370;-69
2022/10/21 08:19:07;;;;;;;16.63;7.78;;;;;;;13.39;nan;93570.13;4929562;29;20044;-70
2022/10/21 08:21:36;;;;;;;13.20;7.10;;;;;;;13.61;nan;93571.47;4923375;29;20482;-61
2022/10/21 08:24:03;;;;;;;16.03;6.60;;;;;;;13.38;nan;93601.69;4931326;29;20050;-64
2022/10/21 08:26:30;;;;;;;12.57;6.20;;;;;;;13.30;nan;93596.81;4931061;29;20044;-64
2022/10/21 08:28:57;;;;;;;13.18;5.93;;;;;;;13.29;nan;93598.00;4930959;29;20039;-63
2022/10/21 08:31:28;;;;;;;14.25;7.03;;;;;;;13.22;nan;93637.59;4914729;29;20048;-66
2022/10/21 08:33:55;;;;;;;13.70;6.57;;;;;;;13.18;nan;93678.25;4931116;29;20042;-71
2022/10/21 08:36:24;;;;;;;15.57;6.50;;;;;;;13.10;nan;93732.78;4930376;29;20054;-70
2022/10/21 08:38:52;;;;;;;13.32;5.50;;;;;;;13.03;nan;93741.25;4931380;29;20042;-69
2022/10/21 08:41:28;;;;;;;8.25;4.13;;;;;;;13.09;nan;93731.22;4931337;29;20044;-65
2022/10/21 08:44:12;;;;;;;8.15;2.83;;;;;;;13.14;nan;93716.94;4930930;29;20039;-70
2022/10/21 08:46:46;;;;;;;5.90;2.55;;;;;;;13.24;nan;93708.78;4923327;29;20586;-68
2022/10/21 08:49:18;;;;;;;5.50;2.43;;;;;;;13.33;nan;93708.94;4930796;29;20048;-66
2022/10/21 08:51:55;;;;;;;5.65;2.42;;;;;;;13.42;nan;93714.59;4931186;29;20048;-68
2022/10/21 08:54:29;;;;;;;5.95;2.70;;;;;;;13.38;nan;93711.94;4892901;29;20384;-65
2022/10/21 08:56:59;;;;;;;6.10;2.90;;;;;;;13.33;nan;93698.69;4893704;29;20064;-65
2022/10/21 08:59:26;;;;;;;6.28;3.10;;;;;;;13.29;nan;93697.22;4892376;29;20536;-62
2022/10/21 09:02:04;;;;;;;7.07;2.80;;;;;;;13.25;nan;93697.31;4893631;29;20045;-62
2022/10/21 09:04:48;;;;;;;6.40;2.80;;;;;;;13.27;nan;93694.13;4893064;29;20040;-66
2022/10/21 09:07:37;;;;;;;6.45;2.72;;;;;;;13.33;nan;93686.91;4891978;29;20053;-62
2022/10/21 09:10:27;;;;;;;6.93;2.65;;;;;;;13.36;nan;93681.28;4893864;29;20048;-62
2022/10/21 09:13:10;;;;;;;9.10;3.47;;;;;;;13.39;nan;93685.91;4895016;29;20036;-63
2022/10/21 09:16:05;;;;;;;6.23;3.00;;;;;;;13.46;nan;93682.19;4895278;29;20401;-63
2022/10/21 09:18:50;;;;;;;7.40;4.13;;;;;;;13.49;nan;93692.31;4888188;29;20055;-63
2022/10/21 09:21:45;;;;;;;8.65;4.20;;;;;;;13.51;nan;93703.66;4896199;29;20084;-63
2022/10/21 09:24:35;;;;;;;7.68;3.85;;;;;;;13.62;nan;93697.06;4897032;29;20048;-63
2022/10/21 09:27:03;;;;;;;8.60;4.20;;;;;;;13.46;nan;93706.19;4896760;29;20089;-63
2022/10/21 09:29:33;;;;;;;7.73;4.20;;;;;;;13.31;nan;93708.63;4891291;29;20059;-65
2022/10/21 09:32:17;;;;;;;9.35;3.92;;;;;;;13.26;nan;93704.41;4896410;29;20052;-63
2022/10/21 09:35:04;;;;;;;6.63;3.00;;;;;;;13.25;nan;93710.34;4896681;29;20093;-63
2022/10/21 09:37:36;;;;;;;7.72;3.38;;;;;;;13.31;nan;93712.13;4896690;29;20067;-63
2022/10/21 09:40:16;;;;;;;6.53;2.90;;;;;;;13.45;nan;93712.94;4891416;29;20060;-63
2022/10/21 09:42:44;;;;;;;6.40;2.60;;;;;;;13.38;nan;93711.16;4894213;29;21776;-64
2022/10/21 09:45:42;;;;;;;6.32;3.00;;;;;;;13.43;nan;93713.38;4896750;29;20059;-64
2022/10/21 09:48:09;;;;;;;7.78;3.38;;;;;;;13.53;nan;93706.75;4882805;29;20044;-63
2022/10/21 09:50:36;;;;;;;5.47;2.50;;;;;;;13.41;nan;93718.56;4896980;29;20047;-64
2022/10/21 09:53:13;;;;;;;5.78;2.38;;;;;;;13.45;nan;93719.22;4910187;29;20048;-63
2022/10/21 09:55:42;;;;;;;4.93;1.80;;;;;;;13.39;nan;93716.22;4930999;29;20908;-64
2022/10/21 09:58:26;;;;;;;5.55;2.42;;;;;;;13.41;nan;93710.28;4933516;29;20040;-62
2022/10/21 10:00:54;;;;;;;4.13;2.00;;;;;;;13.43;nan;93721.63;4930419;28;20050;-62
2022/10/21 10:03:32;;;;;;;4.60;1.63;;;;;;;13.38;nan;93720.22;4931420;28;20051;-62
2022/10/21 10:06:01;;;;;;;4.85;2.05;;;;;;;13.43;nan;93726.38;4942026;28;20042;-62
2022/10/21 10:08:34;;;;;;;4.07;1.60;;;;;;;13.43;nan;93729.16;4934122;29;20044;-62
2022/10/21 10:11:15;;;;;;;3.80;1.70;;;;;;;13.55;nan;93734.66;4934917;29;20062;-62
2022/10/21 10:13:50;;;;;;;4.88;1.52;;;;;;;13.55;nan;93739.41;4920489;29;20766;-62
2022/10/21 10:16:29;;;;;;;4.88;1.52;;;;;;;13.64;nan;93747.78;4933973;29;20051;-62
2022/10/21 10:19:17;;;;;;;4.57;2.22;;;;;;;13.58;nan;93758.63;4922056;29;20045;-63
2022/10/21 10:21:47;;;;;;;4.23;1.70;;;;;;;13.50;nan;93751.78;4933496;29;20095;-62
2022/10/21 10:24:18;;;;;;;3.38;1.63;;;;;;;13.52;nan;93749.34;4933644;29;20058;-62
2022/10/21 10:26:47;;;;;;;4.65;2.28;;;;;;;13.58;nan;93739.31;4934678;29;20054;-62
2022/10/21 10:29:13;;;;;;;3.75;1.20;;;;;;;13.57;nan;93748.03;4934356;29;20046;-62
2022/10/21 10:31:49;;;;;;;3.20;1.55;;;;;;;13.62;nan;93746.69;4934459;29;20490;-62
2022/10/21 10:34:29;;;;;;;4.83;1.70;;;;;;;13.73;nan;93747.16;4934078;29;20047;-63
2022/10/21 10:37:04;;;;;;;4.90;1.70;;;;;;;13.75;nan;93739.97;4917747;29;20043;-62
2022/10/21 10:39:34;;;;;;;5.22;2.10;;;;;;;13.81;nan;93734.69;4945711;28;20049;-64
2022/10/21 10:42:02;;;;;;;4.22;2.00;;;;;;;13.78;nan;93735.56;4942921;28;20050;-62
2022/10/21 10:44:36;;;;;;;5.70;2.55;;;;;;;13.71;nan;93741.31;4952219;28;20047;-63
2022/10/21 10:47:05;;;;;;;5.07;2.23;;;;;;;13.71;nan;93733.03;4935766;29;20058;-62
2022/10/21 10:49:36;;;;;;;4.70;1.98;;;;;;;13.66;nan;93730.81;4933597;29;20396;-62
2022/10/21 10:52:19;;;;;;;6.22;2.78;;;;;;;13.65;nan;93732.03;4933616;29;20489;-61
2022/10/21 10:54:48;;;;;;;4.57;1.55;;;;;;;13.70;nan;93732.28;4944513;28;20332;-62
2022/10/21 10:57:19;;;;;;;5.40;2.75;;;;;;;13.81;nan;93733.94;4935640;29;20052;-63
2022/10/21 10:59:54;;;;;;;3.90;1.87;;;;;;;13.84;nan;93738.56;4933745;29;20060;-62
2022/10/21 11:02:24;;;;;;;2.72;1.20;;;;;;;13.92;nan;93734.34;4932206;29;20051;-61
2022/10/21 11:05:02;;;;;;;4.03;1.50;;;;;;;14.07;nan;93740.22;4934102;29;20048;-62
2022/10/21 11:07:38;;;;;;;4.28;1.50;;;;;;;14.19;nan;93736.66;4939173;28;20794;-63
2022/10/21 11:10:27;;;;;;;5.43;1.38;;;;;;;14.24;nan;93730.56;4941775;28;20054;-63
2022/10/21 11:12:54;;;;;;;4.13;1.47;;;;;;;14.30;nan;93726.03;4932930;29;20918;-63
2022/10/21 11:15:49;;;;;;;4.38;1.30;;;;;;;14.29;nan;93730.03;4933111;29;20396;-60
2022/10/21 11:18:42;;;;;;;3.83;1.10;;;;;;;14.86;nan;93734.88;4933258;29;20512;-62
2022/10/21 11:21:13;;;;;;;2.67;1.00;;;;;;;15.53;nan;93737.22;4933152;29;20059;-60
2022/10/21 11:23:58;;;;;;;2.53;1.00;;;;;;;16.66;nan;93746.28;4933240;29;20043;-61
2022/10/21 11:26:40;;;;;;;3.83;0.80;;;;;;;16.64;nan;93743.22;4932944;29;20044;-61
2022/10/21 11:29:06;;;;;;;4.50;0.70;;;;;;;16.68;nan;93738.28;4933617;29;20147;-63
2022/10/21 11:31:50;;;;;;;3.00;0.90;;;;;;;16.18;nan;93748.63;4931470;29;20044;-62
2022/10/21 11:35:06;;;;;;;3.35;0.68;;;;;;;15.72;nan;93745.63;4931951;29;20420;-63
2022/10/21 11:37:45;;;;;;;2.22;0.45;;;;;;;15.77;nan;93759.66;4937737;28;20035;-62
2022/10/21 11:40:33;;;;;;;2.43;0.60;;;;;;;15.38;nan;93750.03;4939532;28;20396;-62
2022/10/21 11:43:35;;;;;;;3.92;0.80;;;;;;;15.57;nan;93750.91;4933314;29;20061;-62
2022/10/21 11:46:37;;;;;;;3.45;0.70;;;;;;;16.10;nan;93770.28;4931802;29;20065;-62
2022/10/21 11:49:49;;;;;;;3.13;0.90;;;;;;;15.53;nan;93769.63;4932421;29;20465;-63
2022/10/21 11:52:23;;;;;;;2.90;0.98;;;;;;;15.33;nan;93781.00;4919106;29;20661;-62
2022/10/21 11:54:59;;;;;;;2.80;0.70;;;;;;;15.05;nan;93767.00;4933181;29;20048;-63
2022/10/21 11:57:50;;;;;;;3.50;0.80;;;;;;;14.88;nan;93771.13;4932263;29;21439;-62
2022/10/21 12:00:25;;;;;;;2.65;0.70;;;;;;;14.76;nan;93756.91;4932092;29;20039;-62